Time;durP1;ratioP1;P1;durP2;ratioP2;P2;SDS_P1;SDS_P2;PMS_P1;PMS_P2;Temp;Humidity;BMP_temperature;BMP_pressure;BME280_temperature;BME280_humidity;BME280_pressure;Samples;Min_cycle;Max_cycle;Signal;HPM_P1;HPM_P2
2023/08/01 00:01:58;;;;;;;4.17;3.40;;;;;;;;;;5030473;28;20517;-57
2023/08/01 00:04:27;;;;;;;5.57;4.53;;;;;;;;;;5030502;28;20445;-57
2023/08/01 00:06:55;;;;;;;5.10;3.70;;;;;;;;;;5030007;28;20566;-57
2023/08/01 00:09:22;;;;;;;4.70;3.80;;;;;;;;;;5030449;28;20815;-56
2023/08/01 00:11:49;;;;;;;5.17;3.80;;;;;;;;;;5030318;28;20553;-57
2023/08/01 00:14:17;;;;;;;6.30;4.10;;;;;;;;;;5030615;28;20470;-57
2023/08/01 00:16:44;;;;;;;4.83;4.10;;;;;;;;;;5030621;28;20430;-57
2023/08/01 00:19:12;;;;;;;4.40;3.30;;;;;;;;;;5030180;28;20443;-56
2023/08/01 00:21:41;;;;;;;6.50;3.40;;;;;;;;;;5030142;28;20473;-57
2023/08/01 00:24:08;;;;;;;6.73;3.57;;;;;;;;;;5029953;28;20477;-57
2023/08/01 00:26:35;;;;;;;6.77;3.80;;;;;;;;;;5029944;28;20620;-57
2023/08/01 00:29:02;;;;;;;4.83;3.50;;;;;;;;;;5030083;28;20474;-56
2023/08/01 00:31:29;;;;;;;4.50;3.73;;;;;;;;;;5029847;28;20458;-57
2023/08/01 00:33:57;;;;;;;8.20;3.77;;;;;;;;;;5029744;28;20530;-56
2023/08/01 00:36:24;;;;;;;7.23;3.80;;;;;;;;;;5029305;28;20442;-57
2023/08/01 00:38:53;;;;;;;6.70;3.93;;;;;;;;;;5030121;28;20577;-57
2023/08/01 00:41:20;;;;;;;5.00;3.57;;;;;;;;;;5028158;28;20462;-57
2023/08/01 00:43:48;;;;;;;5.00;3.90;;;;;;;;;;5033030;28;20525;-57
2023/08/01 00:46:15;;;;;;;4.67;3.57;;;;;;;;;;5033588;28;20477;-56
2023/08/01 00:48:42;;;;;;;7.53;3.90;;;;;;;;;;5034029;28;20438;-56
2023/08/01 00:51:11;;;;;;;5.73;4.03;;;;;;;;;;5033707;28;20508;-57
2023/08/01 00:53:39;;;;;;;6.60;3.80;;;;;;;;;;5033650;28;20515;-56
2023/08/01 00:56:07;;;;;;;4.10;3.33;;;;;;;;;;5033621;28;20466;-57
2023/08/01 00:58:35;;;;;;;4.70;3.77;;;;;;;;;;5033708;28;20525;-57
2023/08/01 01:01:03;;;;;;;3.97;3.20;;;;;;;;;;5033665;28;20496;-57
2023/08/01 01:03:30;;;;;;;6.80;3.93;;;;;;;;;;5033866;28;20454;-56
2023/08/01 01:05:59;;;;;;;4.87;3.63;;;;;;;;;;5033640;28;20840;-57
2023/08/01 01:08:26;;;;;;;4.60;3.80;;;;;;;;;;5033220;28;20532;-56
2023/08/01 01:10:54;;;;;;;5.33;4.47;;;;;;;;;;5033305;28;20473;-57
2023/08/01 01:13:22;;;;;;;4.67;3.53;;;;;;;;;;5033222;28;20462;-57
2023/08/01 01:15:49;;;;;;;4.77;3.37;;;;;;;;;;5033498;28;20530;-57
2023/08/01 01:18:17;;;;;;;4.97;4.13;;;;;;;;;;5033526;28;20521;-56
2023/08/01 01:20:45;;;;;;;8.90;4.83;;;;;;;;;;5033147;28;20485;-57
2023/08/01 01:23:12;;;;;;;5.60;3.83;;;;;;;;;;5033248;28;20470;-56
2023/08/01 01:25:40;;;;;;;4.87;4.10;;;;;;;;;;5032590;28;20525;-56
2023/08/01 01:28:09;;;;;;;6.53;3.93;;;;;;;;;;5033452;28;20478;-56
2023/08/01 01:30:36;;;;;;;5.33;3.37;;;;;;;;;;5033137;28;20494;-57
2023/08/01 01:33:04;;;;;;;4.80;3.87;;;;;;;;;;5033201;28;20446;-57
2023/08/01 01:35:32;;;;;;;5.30;3.90;;;;;;;;;;5033416;28;20470;-57
2023/08/01 01:38:03;;;;;;;5.00;3.63;;;;;;;;;;5033724;28;20440;-57
2023/08/01 01:40:30;;;;;;;4.60;3.33;;;;;;;;;;5032344;28;20553;-57
2023/08/01 01:42:58;;;;;;;4.40;3.57;;;;;;;;;;5032697;28;20873;-57
2023/08/01 01:45:25;;;;;;;5.40;3.73;;;;;;;;;;5032275;28;20989;-56
2023/08/01 01:47:52;;;;;;;4.27;3.30;;;;;;;;;;5033093;28;20882;-56
2023/08/01 01:50:19;;;;;;;5.27;4.20;;;;;;;;;;5032763;28;20873;-57
2023/08/01 01:52:47;;;;;;;5.47;3.87;;;;;;;;;;5032446;28;20533;-57
2023/08/01 01:55:15;;;;;;;5.93;3.90;;;;;;;;;;5033011;28;20499;-56
2023/08/01 01:57:42;;;;;;;6.23;3.77;;;;;;;;;;5032756;28;20472;-57
2023/08/01 02:00:11;;;;;;;5.00;3.87;;;;;;;;;;5032435;28;20895;-56
2023/08/01 02:02:38;;;;;;;5.77;4.13;;;;;;;;;;5032637;28;20448;-57
2023/08/01 02:05:06;;;;;;;5.40;4.07;;;;;;;;;;5032942;28;20505;-57
2023/08/01 02:07:33;;;;;;;5.63;4.83;;;;;;;;;;5032409;28;20561;-57
2023/08/01 02:10:00;;;;;;;6.03;3.97;;;;;;;;;;5150624;23;20957;-55
2023/08/01 02:12:31;;;;;;;5.47;4.07;;;;;;;;;;4992115;28;20522;-56
2023/08/01 02:14:58;;;;;;;7.63;4.27;;;;;;;;;;4992970;28;20448;-55
2023/08/01 02:17:26;;;;;;;4.47;3.83;;;;;;;;;;4993484;28;20471;-58
2023/08/01 02:19:53;;;;;;;4.50;3.67;;;;;;;;;;4992785;28;20439;-57
2023/08/01 02:22:20;;;;;;;5.60;4.30;;;;;;;;;;4993193;28;21015;-55
2023/08/01 02:24:47;;;;;;;6.73;4.33;;;;;;;;;;4992696;28;20444;-57
2023/08/01 02:27:14;;;;;;;5.13;3.70;;;;;;;;;;4993149;28;20507;-57
2023/08/01 02:29:44;;;;;;;6.23;4.40;;;;;;;;;;4992260;28;20550;-56
2023/08/01 02:32:11;;;;;;;4.37;3.97;;;;;;;;;;4993173;28;20444;-55
2023/08/01 02:34:38;;;;;;;6.00;4.10;;;;;;;;;;4993285;28;20479;-55
2023/08/01 02:37:06;;;;;;;6.20;4.20;;;;;;;;;;4993109;28;20523;-57
2023/08/01 02:39:33;;;;;;;6.73;4.03;;;;;;;;;;4992830;28;20890;-55
2023/08/01 02:42:00;;;;;;;5.40;4.50;;;;;;;;;;4992073;28;20550;-57
2023/08/01 02:44:27;;;;;;;5.13;4.00;;;;;;;;;;4992352;28;20534;-56
2023/08/01 02:46:56;;;;;;;5.90;3.80;;;;;;;;;;4992314;28;20554;-57
2023/08/01 02:49:23;;;;;;;4.60;3.70;;;;;;;;;;4992697;28;20518;-55
2023/08/01 02:51:50;;;;;;;7.40;4.57;;;;;;;;;;4992673;28;20562;-56
2023/08/01 02:54:18;;;;;;;4.80;4.03;;;;;;;;;;4992752;28;20519;-56
2023/08/01 02:56:45;;;;;;;5.43;3.97;;;;;;;;;;4992398;28;20895;-56
2023/08/01 02:59:12;;;;;;;5.97;4.07;;;;;;;;;;4992403;28;20444;-57
2023/08/01 03:01:40;;;;;;;5.40;4.10;;;;;;;;;;4992040;28;20510;-55
2023/08/01 03:04:08;;;;;;;7.63;4.57;;;;;;;;;;4992202;28;20543;-57
2023/08/01 03:06:36;;;;;;;6.83;3.33;;;;;;;;;;4991202;28;20559;-57
2023/08/01 03:09:03;;;;;;;5.97;4.23;;;;;;;;;;4992436;28;20927;-57
2023/08/01 03:11:30;;;;;;;7.17;3.90;;;;;;;;;;5004168;28;21064;-56
2023/08/01 03:13:57;;;;;;;5.03;4.53;;;;;;;;;;5011979;28;20522;-57
2023/08/01 03:16:24;;;;;;;5.30;4.10;;;;;;;;;;5011719;28;20463;-57
2023/08/01 03:18:52;;;;;;;5.60;4.10;;;;;;;;;;5011847;28;20719;-55
2023/08/01 03:21:20;;;;;;;6.37;3.90;;;;;;;;;;5011496;28;20550;-55
2023/08/01 03:23:47;;;;;;;6.40;4.40;;;;;;;;;;5011467;28;20442;-55
2023/08/01 03:26:18;;;;;;;4.23;3.33;;;;;;;;;;5011571;28;20502;-56
2023/08/01 03:28:45;;;;;;;4.37;3.67;;;;;;;;;;5011531;28;20454;-56
2023/08/01 03:31:12;;;;;;;6.00;3.70;;;;;;;;;;5011245;28;20550;-55
2023/08/01 03:33:39;;;;;;;4.37;3.87;;;;;;;;;;5011664;28;20471;-57
2023/08/01 03:36:07;;;;;;;5.50;4.57;;;;;;;;;;5011548;28;21003;-56
2023/08/01 03:38:35;;;;;;;4.90;4.23;;;;;;;;;;5011463;28;20531;-56
2023/08/01 03:41:03;;;;;;;4.20;3.70;;;;;;;;;;5010524;28;20521;-56
2023/08/01 03:43:31;;;;;;;4.93;3.87;;;;;;;;;;5010842;28;20439;-55
2023/08/01 03:45:58;;;;;;;6.13;4.23;;;;;;;;;;5011214;28;20485;-57
2023/08/01 03:48:25;;;;;;;5.70;4.30;;;;;;;;;;5011662;28;20505;-56
2023/08/01 03:50:52;;;;;;;5.10;3.80;;;;;;;;;;5010702;28;20902;-56
2023/08/01 03:53:20;;;;;;;4.93;4.17;;;;;;;;;;5013629;28;20521;-57
2023/08/01 03:55:49;;;;;;;4.83;4.20;;;;;;;;;;5010717;28;20521;-57
2023/08/01 03:58:16;;;;;;;6.30;4.40;;;;;;;;;;5011141;28;20441;-57
2023/08/01 04:00:43;;;;;;;9.63;4.97;;;;;;;;;;5010889;28;20559;-56
2023/08/01 04:03:10;;;;;;;5.20;4.07;;;;;;;;;;5010798;28;20539;-57
2023/08/01 04:05:37;;;;;;;4.97;3.90;;;;;;;;;;5011353;28;20531;-57
2023/08/01 04:08:05;;;;;;;6.37;4.00;;;;;;;;;;5010896;28;21077;-57
2023/08/01 04:10:32;;;;;;;5.50;4.10;;;;;;;;;;5009905;28;20475;-57
2023/08/01 04:13:01;;;;;;;9.30;4.50;;;;;;;;;;5010826;28;20517;-57
2023/08/01 04:15:28;;;;;;;7.50;4.40;;;;;;;;;;5010865;28;20506;-56
2023/08/01 04:17:55;;;;;;;5.53;4.77;;;;;;;;;;5010503;28;20523;-57
2023/08/01 04:20:22;;;;;;;6.73;4.57;;;;;;;;;;5010429;28;21174;-56
2023/08/01 04:22:50;;;;;;;5.83;4.23;;;;;;;;;;5010528;28;20507;-55
2023/08/01 04:25:17;;;;;;;7.00;3.83;;;;;;;;;;5010181;28;20472;-57
2023/08/01 04:27:44;;;;;;;5.37;4.10;;;;;;;;;;5010820;28;20571;-56
2023/08/01 04:30:13;;;;;;;5.17;3.90;;;;;;;;;;5010508;28;20547;-56
2023/08/01 04:32:40;;;;;;;5.17;4.63;;;;;;;;;;5010505;28;20967;-56
2023/08/01 04:35:08;;;;;;;4.23;3.83;;;;;;;;;;5010605;28;20550;-57
2023/08/01 04:37:35;;;;;;;4.67;3.70;;;;;;;;;;5010618;28;20521;-57
2023/08/01 04:40:02;;;;;;;5.43;4.03;;;;;;;;;;5009740;28;20482;-57
2023/08/01 04:42:30;;;;;;;5.00;3.80;;;;;;;;;;5010614;28;20569;-56
2023/08/01 04:44:57;;;;;;;6.30;4.20;;;;;;;;;;5009102;28;20906;-56
2023/08/01 04:47:26;;;;;;;6.47;4.33;;;;;;;;;;5008977;28;20891;-57
2023/08/01 04:49:53;;;;;;;7.73;4.70;;;;;;;;;;5008578;28;20514;-55
2023/08/01 04:52:20;;;;;;;9.10;4.90;;;;;;;;;;5008579;28;20479;-57
2023/08/01 04:54:47;;;;;;;5.33;4.83;;;;;;;;;;5008962;28;20439;-55
2023/08/01 04:57:15;;;;;;;7.43;5.17;;;;;;;;;;5009035;28;20523;-55
2023/08/01 04:59:42;;;;;;;6.40;5.13;;;;;;;;;;5008985;28;20563;-57
2023/08/01 05:02:09;;;;;;;5.53;4.70;;;;;;;;;;5009702;28;20963;-56
2023/08/01 05:04:38;;;;;;;5.53;4.13;;;;;;;;;;5009851;28;20501;-57
2023/08/01 05:07:06;;;;;;;6.70;4.93;;;;;;;;;;5010351;28;20541;-57
2023/08/01 05:09:34;;;;;;;7.20;4.80;;;;;;;;;;5008542;28;20434;-57
2023/08/01 05:12:01;;;;;;;7.00;5.40;;;;;;;;;;5008112;28;20469;-57
2023/08/01 05:14:28;;;;;;;6.83;4.10;;;;;;;;;;5008114;28;20543;-55
2023/08/01 05:16:55;;;;;;;5.87;4.30;;;;;;;;;;5008681;28;20963;-57
2023/08/01 05:19:23;;;;;;;5.60;4.23;;;;;;;;;;5008124;28;20527;-57
2023/08/01 05:21:51;;;;;;;7.73;4.40;;;;;;;;;;5008248;28;20538;-57
2023/08/01 05:24:19;;;;;;;6.10;4.27;;;;;;;;;;5008655;28;20465;-57
2023/08/01 05:26:46;;;;;;;5.77;4.37;;;;;;;;;;5009824;28;20550;-55
2023/08/01 05:29:13;;;;;;;5.00;4.30;;;;;;;;;;5011959;28;20435;-56
2023/08/01 05:31:40;;;;;;;6.90;6.00;;;;;;;;;;5012849;28;20579;-55
2023/08/01 05:34:07;;;;;;;5.10;4.60;;;;;;;;;;5012916;28;20927;-56
2023/08/01 05:36:35;;;;;;;5.13;4.47;;;;;;;;;;5013317;28;20619;-57
2023/08/01 05:39:03;;;;;;;5.73;4.07;;;;;;;;;;5013609;28;20455;-55
2023/08/01 05:41:31;;;;;;;8.70;4.80;;;;;;;;;;5012884;28;20524;-57
2023/08/01 05:43:58;;;;;;;5.77;4.70;;;;;;;;;;5012213;28;20439;-56
2023/08/01 05:46:25;;;;;;;6.97;6.27;;;;;;;;;;5012963;28;20540;-56
2023/08/01 05:48:52;;;;;;;5.93;4.40;;;;;;;;;;5012714;28;20482;-57
2023/08/01 05:51:20;;;;;;;6.53;5.03;;;;;;;;;;5012203;28;20495;-57
2023/08/01 05:53:47;;;;;;;10.63;5.80;;;;;;;;;;5011825;28;20467;-57
2023/08/01 05:56:16;;;;;;;5.43;4.47;;;;;;;;;;5012933;28;20532;-57
2023/08/01 05:58:43;;;;;;;8.23;5.27;;;;;;;;;;5013203;28;20455;-55
2023/08/01 06:01:12;;;;;;;5.90;4.93;;;;;;;;;;5011744;28;20945;-56
2023/08/01 06:03:39;;;;;;;5.17;4.60;;;;;;;;;;5012538;28;21030;-57
2023/08/01 06:06:06;;;;;;;7.33;4.77;;;;;;;;;;5012810;28;20471;-57
2023/08/01 06:08:33;;;;;;;8.80;4.43;;;;;;;;;;5012292;28;20510;-57
2023/08/01 06:11:01;;;;;;;6.63;4.87;;;;;;;;;;5011322;28;21045;-56
2023/08/01 06:13:29;;;;;;;6.70;4.93;;;;;;;;;;5012496;28;20517;-56
2023/08/01 06:15:56;;;;;;;5.60;4.53;;;;;;;;;;5012038;28;20549;-55
2023/08/01 06:18:24;;;;;;;5.70;5.00;;;;;;;;;;5011883;28;20527;-56
2023/08/01 06:20:51;;;;;;;6.80;5.20;;;;;;;;;;5012348;28;20538;-56
2023/08/01 06:23:18;;;;;;;4.93;4.47;;;;;;;;;;5012253;28;20542;-56
2023/08/01 06:25:45;;;;;;;6.00;4.33;;;;;;;;;;5012655;28;20506;-56
2023/08/01 06:28:13;;;;;;;7.10;5.47;;;;;;;;;;5012677;28;20566;-56
2023/08/01 06:30:41;;;;;;;6.20;4.97;;;;;;;;;;5012520;28;21043;-55
2023/08/01 06:33:08;;;;;;;5.80;4.73;;;;;;;;;;5010988;28;20471;-56
2023/08/01 06:35:36;;;;;;;8.67;5.30;;;;;;;;;;5012145;28;20928;-56
2023/08/01 06:38:03;;;;;;;5.97;5.37;;;;;;;;;;5012009;28;20466;-56
2023/08/01 06:40:30;;;;;;;8.83;5.50;;;;;;;;;;5011769;28;20491;-55
2023/08/01 06:42:57;;;;;;;6.73;5.63;;;;;;;;;;5011995;28;20467;-55
2023/08/01 06:45:25;;;;;;;6.60;4.57;;;;;;;;;;5011670;28;20525;-57
2023/08/01 06:47:53;;;;;;;8.63;4.47;;;;;;;;;;5011375;28;20471;-57
2023/08/01 06:50:20;;;;;;;7.60;5.57;;;;;;;;;;5012087;28;20538;-57
2023/08/01 06:52:48;;;;;;;8.80;5.73;;;;;;;;;;5012305;28;20534;-57
2023/08/01 06:55:15;;;;;;;7.03;5.60;;;;;;;;;;5012482;28;20471;-56
2023/08/01 06:57:43;;;;;;;7.70;5.93;;;;;;;;;;5012206;28;20442;-57
2023/08/01 07:00:11;;;;;;;7.20;6.30;;;;;;;;;;5011681;28;21080;-57
2023/08/01 07:02:38;;;;;;;6.37;5.73;;;;;;;;;;5011771;28;20451;-56
2023/08/01 07:05:07;;;;;;;8.67;6.30;;;;;;;;;;5011430;28;20940;-55
2023/08/01 07:07:34;;;;;;;10.20;6.30;;;;;;;;;;5011944;28;20924;-55
2023/08/01 07:10:01;;;;;;;7.03;6.13;;;;;;;;;;5011622;28;20772;-55
2023/08/01 07:12:29;;;;;;;8.10;6.90;;;;;;;;;;5011828;28;20984;-56
2023/08/01 07:14:56;;;;;;;7.80;6.77;;;;;;;;;;5012100;28;20479;-56
2023/08/01 07:17:23;;;;;;;7.33;6.60;;;;;;;;;;5009608;28;20471;-55
2023/08/01 07:19:50;;;;;;;8.87;6.00;;;;;;;;;;5007095;28;20534;-55
2023/08/01 07:22:19;;;;;;;9.93;7.03;;;;;;;;;;5006934;28;20470;-56
2023/08/01 07:24:46;;;;;;;9.23;7.80;;;;;;;;;;5010821;28;20522;-56
2023/08/01 07:27:13;;;;;;;9.13;7.67;;;;;;;;;;5010484;28;20573;-55
2023/08/01 07:29:40;;;;;;;9.10;7.47;;;;;;;;;;5008015;28;20526;-56
2023/08/01 07:32:08;;;;;;;10.33;7.60;;;;;;;;;;5008220;28;20573;-55
2023/08/01 07:34:35;;;;;;;10.13;7.93;;;;;;;;;;5008306;28;20494;-56
2023/08/01 07:37:02;;;;;;;8.37;7.47;;;;;;;;;;5010178;28;20529;-55
2023/08/01 07:39:31;;;;;;;7.47;6.67;;;;;;;;;;5011234;28;20502;-56
2023/08/01 07:41:58;;;;;;;7.10;6.40;;;;;;;;;;5011379;28;20547;-57
2023/08/01 07:44:25;;;;;;;9.37;7.87;;;;;;;;;;5010615;28;20603;-55
2023/08/01 07:46:53;;;;;;;7.60;6.77;;;;;;;;;;5003045;28;20495;-56
2023/08/01 07:49:20;;;;;;;8.50;6.43;;;;;;;;;;5010282;28;20794;-56
2023/08/01 07:51:48;;;;;;;7.10;6.40;;;;;;;;;;5010229;28;20989;-57
2023/08/01 07:54:15;;;;;;;7.10;6.13;;;;;;;;;;5010680;28;20502;-57
2023/08/01 07:56:45;;;;;;;7.60;6.80;;;;;;;;;;5011075;28;20471;-57
2023/08/01 07:59:12;;;;;;;9.10;7.50;;;;;;;;;;5010942;28;20836;-56
2023/08/01 08:01:40;;;;;;;8.73;7.47;;;;;;;;;;5010906;28;20831;-55
2023/08/01 08:04:07;;;;;;;8.27;7.30;;;;;;;;;;5010988;28;20443;-55
2023/08/01 08:06:34;;;;;;;10.63;7.87;;;;;;;;;;5011538;28;20473;-55
2023/08/01 08:09:03;;;;;;;8.70;6.20;;;;;;;;;;5010953;28;20565;-56
2023/08/01 08:11:30;;;;;;;6.97;5.97;;;;;;;;;;5018134;23;21019;-57
2023/08/01 08:13:58;;;;;;;7.27;6.40;;;;;;;;;;5011120;28;20497;-56
2023/08/01 08:16:26;;;;;;;7.40;6.00;;;;;;;;;;5010660;28;20530;-57
2023/08/01 08:18:53;;;;;;;9.77;6.10;;;;;;;;;;5011022;28;20470;-57
2023/08/01 08:21:20;;;;;;;8.63;5.83;;;;;;;;;;5010665;28;20459;-57
2023/08/01 08:23:47;;;;;;;7.40;6.53;;;;;;;;;;5011012;28;20439;-56
2023/08/01 08:26:15;;;;;;;9.60;6.77;;;;;;;;;;5011300;28;20522;-55
2023/08/01 08:28:42;;;;;;;8.30;5.90;;;;;;;;;;5011066;28;20566;-54
2023/08/01 08:31:11;;;;;;;8.37;6.70;;;;;;;;;;5008252;28;20525;-55
2023/08/01 08:33:38;;;;;;;8.77;6.50;;;;;;;;;;5010319;28;21018;-57
2023/08/01 08:36:05;;;;;;;8.20;6.70;;;;;;;;;;5009879;28;20447;-57
2023/08/01 08:38:32;;;;;;;6.90;6.20;;;;;;;;;;5010390;28;20526;-57
2023/08/01 08:41:08;;;;;;;7.77;5.80;;;;;;;;;;5009066;28;20513;-56
2023/08/01 08:43:35;;;;;;;6.83;5.83;;;;;;;;;;5009596;28;20467;-57
2023/08/01 08:46:06;;;;;;;6.70;5.47;;;;;;;;;;5003681;28;20470;-57
2023/08/01 08:48:35;;;;;;;6.07;4.80;;;;;;;;;;5002041;28;21044;-58
2023/08/01 08:51:04;;;;;;;5.90;5.27;;;;;;;;;;4997680;28;20456;-56
2023/08/01 08:53:32;;;;;;;7.63;6.80;;;;;;;;;;5002283;28;20937;-57
2023/08/01 08:56:00;;;;;;;11.00;6.53;;;;;;;;;;4996366;28;20494;-58
2023/08/01 08:58:27;;;;;;;6.73;6.00;;;;;;;;;;4998080;28;21003;-57
2023/08/01 09:00:54;;;;;;;6.90;6.20;;;;;;;;;;5001464;28;20510;-57
2023/08/01 09:03:22;;;;;;;7.53;6.83;;;;;;;;;;4994110;28;20468;-57
2023/08/01 09:05:51;;;;;;;7.90;6.17;;;;;;;;;;4994148;28;20498;-55
2023/08/01 09:08:20;;;;;;;7.03;5.07;;;;;;;;;;5011348;28;20573;-56
2023/08/01 09:10:48;;;;;;;4.90;4.10;;;;;;;;;;5001883;28;20467;-57
2023/08/01 09:13:15;;;;;;;5.67;4.50;;;;;;;;;;5007105;28;20554;-55
2023/08/01 09:15:44;;;;;;;6.90;4.47;;;;;;;;;;5004991;28;20522;-55
2023/08/01 09:18:11;;;;;;;5.37;4.80;;;;;;;;;;5013234;28;20526;-57
2023/08/01 09:20:42;;;;;;;5.10;4.43;;;;;;;;;;5011865;28;20513;-56
2023/08/01 09:23:12;;;;;;;6.10;4.50;;;;;;;;;;5013801;28;20430;-55
2023/08/01 09:25:39;;;;;;;8.60;5.83;;;;;;;;;;5004328;28;20451;-57
2023/08/01 09:28:16;;;;;;;5.50;4.67;;;;;;;;;;5000563;28;20507;-57
2023/08/01 09:30:47;;;;;;;5.33;4.63;;;;;;;;;;5003687;28;20542;-56
2023/08/01 09:33:15;;;;;;;5.60;5.10;;;;;;;;;;5010125;28;20855;-55
2023/08/01 09:35:44;;;;;;;5.87;4.20;;;;;;;;;;5004640;28;20522;-57
2023/08/01 09:38:13;;;;;;;7.70;5.43;;;;;;;;;;5002649;28;21017;-56
2023/08/01 09:40:41;;;;;;;5.93;5.33;;;;;;;;;;5007626;28;20517;-57
2023/08/01 09:43:08;;;;;;;6.40;5.60;;;;;;;;;;5004481;28;20435;-55
2023/08/01 09:45:35;;;;;;;5.20;4.17;;;;;;;;;;5010580;28;20523;-57
2023/08/01 09:48:03;;;;;;;6.63;5.97;;;;;;;;;;5009444;28;21057;-57
2023/08/01 09:50:30;;;;;;;6.43;5.70;;;;;;;;;;5010795;28;20483;-55
2023/08/01 09:53:08;;;;;;;5.20;4.30;;;;;;;;;;5002208;28;20542;-58
2023/08/01 09:55:37;;;;;;;5.87;4.63;;;;;;;;;;5000670;28;20543;-57
2023/08/01 09:58:06;;;;;;;5.60;5.10;;;;;;;;;;5011010;28;20589;-55
2023/08/01 10:00:33;;;;;;;6.63;5.90;;;;;;;;;;5011837;28;20490;-57
2023/08/01 10:03:01;;;;;;;7.13;5.30;;;;;;;;;;5012315;28;20463;-56
2023/08/01 10:05:30;;;;;;;5.87;5.27;;;;;;;;;;5011734;28;20518;-57
2023/08/01 10:08:00;;;;;;;6.53;5.57;;;;;;;;;;5005456;28;20444;-57
2023/08/01 10:10:27;;;;;;;8.60;4.57;;;;;;;;;;5010778;28;20490;-57
2023/08/01 10:12:56;;;;;;;5.60;4.03;;;;;;;;;;5010430;28;20478;-55
2023/08/01 10:15:24;;;;;;;5.33;4.23;;;;;;;;;;5011777;28;20518;-56
2023/08/01 10:17:51;;;;;;;4.40;4.00;;;;;;;;;;5010639;28;20538;-58
2023/08/01 10:20:20;;;;;;;4.30;3.57;;;;;;;;;;4997569;28;20567;-55
2023/08/01 10:22:47;;;;;;;5.70;3.87;;;;;;;;;;4991634;28;20527;-56
2023/08/01 10:25:15;;;;;;;6.97;4.13;;;;;;;;;;4991868;28;20463;-57
2023/08/01 10:27:42;;;;;;;4.97;4.20;;;;;;;;;;4997598;28;20435;-57
2023/08/01 10:30:11;;;;;;;8.40;5.90;;;;;;;;;;5010380;28;20578;-56
2023/08/01 10:32:39;;;;;;;7.97;6.33;;;;;;;;;;5010607;28;20432;-56
2023/08/01 10:35:09;;;;;;;6.57;5.40;;;;;;;;;;5008743;28;20486;-57
2023/08/01 10:37:43;;;;;;;5.43;4.80;;;;;;;;;;5010700;28;20446;-56
2023/08/01 10:40:11;;;;;;;5.83;4.90;;;;;;;;;;5009370;28;20522;-56
2023/08/01 10:42:41;;;;;;;5.70;4.63;;;;;;;;;;5010051;28;20939;-57
2023/08/01 10:45:09;;;;;;;6.73;5.90;;;;;;;;;;5011609;28;20519;-57
2023/08/01 10:47:37;;;;;;;6.13;5.43;;;;;;;;;;5011648;28;20545;-57
2023/08/01 10:50:15;;;;;;;6.00;5.10;;;;;;;;;;5009178;28;20517;-57
2023/08/01 10:52:42;;;;;;;6.40;5.33;;;;;;;;;;5007577;28;20530;-57
2023/08/01 10:55:10;;;;;;;5.30;4.63;;;;;;;;;;5001294;28;20541;-57
2023/08/01 10:57:38;;;;;;;5.30;4.80;;;;;;;;;;5007585;28;20553;-56
2023/08/01 11:00:09;;;;;;;5.67;5.10;;;;;;;;;;5008730;28;20550;-56
2023/08/01 11:02:38;;;;;;;5.50;5.00;;;;;;;;;;5006575;28;20970;-57
2023/08/01 11:05:06;;;;;;;5.20;4.70;;;;;;;;;;5009544;28;20526;-57
2023/08/01 11:07:34;;;;;;;5.80;4.80;;;;;;;;;;5011012;28;20431;-57
2023/08/01 11:10:06;;;;;;;6.97;5.13;;;;;;;;;;5010663;28;20567;-57
2023/08/01 11:12:35;;;;;;;5.80;5.10;;;;;;;;;;5010880;28;20830;-55
2023/08/01 11:15:03;;;;;;;9.47;7.50;;;;;;;;;;5010570;28;21010;-57
2023/08/01 11:17:30;;;;;;;7.70;5.57;;;;;;;;;;5000800;28;20440;-57
2023/08/01 11:20:07;;;;;;;6.57;5.30;;;;;;;;;;5001560;28;20517;-55
2023/08/01 11:22:34;;;;;;;6.57;5.87;;;;;;;;;;5009153;28;20443;-55
2023/08/01 11:25:01;;;;;;;7.83;5.57;;;;;;;;;;5005173;28;20526;-57
2023/08/01 11:27:29;;;;;;;5.53;4.43;;;;;;;;;;5006566;28;20450;-56
2023/08/01 11:29:56;;;;;;;5.73;5.03;;;;;;;;;;4999123;28;20506;-56
2023/08/01 11:32:23;;;;;;;5.30;4.50;;;;;;;;;;4988755;28;20487;-56
2023/08/01 11:34:51;;;;;;;6.40;5.03;;;;;;;;;;4990010;28;20475;-57
2023/08/01 11:37:21;;;;;;;5.53;4.60;;;;;;;;;;4988816;28;20530;-57
2023/08/01 11:39:49;;;;;;;5.40;4.40;;;;;;;;;;4989082;28;20491;-57
2023/08/01 11:42:17;;;;;;;6.93;4.23;;;;;;;;;;4990963;28;20468;-56
2023/08/01 11:44:45;;;;;;;4.80;3.67;;;;;;;;;;4992057;28;20440;-56
2023/08/01 11:47:13;;;;;;;4.60;3.83;;;;;;;;;;4991716;28;20440;-55
2023/08/01 11:49:41;;;;;;;5.90;3.83;;;;;;;;;;4991115;28;20476;-57
2023/08/01 11:52:08;;;;;;;4.20;3.77;;;;;;;;;;4991167;28;20456;-56
2023/08/01 11:54:46;;;;;;;4.23;3.40;;;;;;;;;;4991711;28;20536;-56
2023/08/01 11:57:13;;;;;;;3.70;3.23;;;;;;;;;;4991597;28;20440;-55
2023/08/01 11:59:48;;;;;;;3.20;2.70;;;;;;;;;;4990957;28;20975;-56
2023/08/01 12:02:22;;;;;;;3.47;2.80;;;;;;;;;;4991447;28;20464;-57
2023/08/01 12:04:50;;;;;;;4.27;2.70;;;;;;;;;;4991938;28;20939;-55
2023/08/01 12:07:17;;;;;;;5.57;3.50;;;;;;;;;;4991344;28;20472;-56
2023/08/01 12:09:44;;;;;;;6.00;4.03;;;;;;;;;;4990927;28;20511;-57
2023/08/01 12:12:13;;;;;;;5.27;4.37;;;;;;;;;;4990536;28;20937;-56
2023/08/01 12:14:43;;;;;;;5.10;3.60;;;;;;;;;;4991443;28;20519;-55
2023/08/01 12:17:10;;;;;;;4.03;3.43;;;;;;;;;;4991787;28;20820;-57
2023/08/01 12:19:37;;;;;;;4.47;3.13;;;;;;;;;;4991156;28;20468;-53
2023/08/01 12:22:05;;;;;;;4.07;3.67;;;;;;;;;;4990689;28;20513;-57
2023/08/01 12:24:33;;;;;;;4.03;3.63;;;;;;;;;;4990801;28;20681;-57
2023/08/01 12:27:00;;;;;;;4.50;4.00;;;;;;;;;;4991047;28;20833;-57
2023/08/01 12:29:28;;;;;;;4.73;3.67;;;;;;;;;;4990887;28;20511;-56
2023/08/01 12:31:56;;;;;;;5.50;3.50;;;;;;;;;;4990913;28;20941;-57
2023/08/01 12:34:23;;;;;;;3.60;2.77;;;;;;;;;;4991140;28;20447;-56
2023/08/01 12:36:50;;;;;;;3.77;3.23;;;;;;;;;;4991350;28;20491;-56
2023/08/01 12:39:17;;;;;;;3.40;2.87;;;;;;;;;;4995212;28;20460;-57
2023/08/01 12:41:44;;;;;;;4.23;2.93;;;;;;;;;;4994405;28;20463;-56
2023/08/01 12:44:12;;;;;;;3.00;2.50;;;;;;;;;;4995152;28;20440;-56
2023/08/01 12:46:41;;;;;;;3.53;2.30;;;;;;;;;;5000515;28;20446;-56
2023/08/01 12:49:08;;;;;;;3.20;2.57;;;;;;;;;;5005904;28;20568;-56
2023/08/01 12:51:35;;;;;;;3.70;2.83;;;;;;;;;;5008216;28;21023;-56
2023/08/01 12:54:02;;;;;;;4.30;3.03;;;;;;;;;;5012413;28;20432;-57
2023/08/01 12:56:29;;;;;;;3.83;2.80;;;;;;;;;;5005756;28;20435;-57
2023/08/01 12:58:57;;;;;;;5.00;3.90;;;;;;;;;;5012740;28;20443;-56
2023/08/01 13:01:24;;;;;;;4.40;3.40;;;;;;;;;;5010710;28;20991;-56
2023/08/01 13:03:53;;;;;;;4.50;3.83;;;;;;;;;;5013796;28;20435;-57
2023/08/01 13:06:20;;;;;;;4.47;3.47;;;;;;;;;;5013904;28;20439;-56
2023/08/01 13:08:47;;;;;;;4.50;3.73;;;;;;;;;;5007576;28;20458;-56
2023/08/01 13:11:15;;;;;;;3.93;3.27;;;;;;;;;;5012416;28;20909;-55
2023/08/01 13:13:42;;;;;;;5.10;3.20;;;;;;;;;;5012608;28;20522;-57
2023/08/01 13:16:10;;;;;;;4.00;3.33;;;;;;;;;;5013857;28;20522;-57
2023/08/01 13:18:43;;;;;;;3.30;2.87;;;;;;;;;;5011111;28;20439;-57
2023/08/01 13:21:12;;;;;;;3.63;2.83;;;;;;;;;;5013673;28;20455;-57
2023/08/01 13:23:39;;;;;;;3.20;2.60;;;;;;;;;;5011112;28;20923;-56
2023/08/01 13:26:06;;;;;;;4.33;3.20;;;;;;;;;;5012989;28;20439;-57
2023/08/01 13:28:33;;;;;;;4.10;2.90;;;;;;;;;;5008148;28;20479;-57
2023/08/01 13:31:00;;;;;;;3.30;2.70;;;;;;;;;;5010790;28;21078;-57
2023/08/01 13:33:28;;;;;;;4.03;2.70;;;;;;;;;;5013080;28;20534;-56
2023/08/01 13:35:55;;;;;;;4.10;3.07;;;;;;;;;;5013203;28;20435;-55
2023/08/01 13:38:23;;;;;;;3.20;2.67;;;;;;;;;;5011360;28;21003;-58
2023/08/01 13:40:51;;;;;;;4.13;2.80;;;;;;;;;;5011917;28;20479;-56
2023/08/01 13:43:18;;;;;;;3.77;2.63;;;;;;;;;;5003813;28;20435;-56
2023/08/01 13:45:45;;;;;;;3.87;2.80;;;;;;;;;;5013663;28;20478;-56
2023/08/01 13:48:12;;;;;;;4.10;3.00;;;;;;;;;;5011665;28;20490;-56
2023/08/01 13:50:40;;;;;;;5.17;3.10;;;;;;;;;;5011319;28;20517;-56
2023/08/01 13:53:10;;;;;;;3.23;2.50;;;;;;;;;;5002966;28;20517;-57
2023/08/01 13:55:38;;;;;;;3.30;2.77;;;;;;;;;;5013903;28;20441;-57
2023/08/01 13:58:06;;;;;;;3.30;2.77;;;;;;;;;;5012968;28;20443;-57
2023/08/01 14:00:33;;;;;;;3.47;2.73;;;;;;;;;;5007905;28;20452;-57
2023/08/01 14:03:01;;;;;;;4.30;3.83;;;;;;;;;;5009213;28;20459;-56
2023/08/01 14:05:28;;;;;;;4.00;3.00;;;;;;;;;;5009967;28;20462;-56
2023/08/01 14:07:56;;;;;;;4.20;2.80;;;;;;;;;;5011889;28;20909;-57
2023/08/01 14:12:59;;;;;;;4.43;2.73;;;;;;;;;;5007688;28;20467;-57
2023/08/01 14:15:26;;;;;;;3.93;2.70;;;;;;;;;;5010968;28;20527;-57
2023/08/01 14:17:54;;;;;;;12.33;8.60;;;;;;;;;;5011041;28;20489;-57
2023/08/01 14:20:21;;;;;;;3.97;3.17;;;;;;;;;;5010864;28;20887;-57
2023/08/01 14:22:48;;;;;;;4.27;2.90;;;;;;;;;;5005092;28;20467;-57
2023/08/01 14:25:15;;;;;;;3.60;2.90;;;;;;;;;;5011892;28;20493;-57
2023/08/01 14:27:43;;;;;;;3.60;3.00;;;;;;;;;;5012027;28;20879;-58
2023/08/01 14:30:12;;;;;;;3.83;2.77;;;;;;;;;;5011417;28;20825;-58
2023/08/01 14:32:39;;;;;;;4.60;3.27;;;;;;;;;;5012423;28;20545;-57
2023/08/01 14:35:07;;;;;;;4.20;3.10;;;;;;;;;;5012328;28;20439;-57
2023/08/01 14:37:34;;;;;;;3.43;2.97;;;;;;;;;;5011770;28;20526;-57
2023/08/01 14:40:02;;;;;;;3.10;2.50;;;;;;;;;;5011200;28;20431;-57
2023/08/01 14:42:30;;;;;;;2.60;2.13;;;;;;;;;;5010263;28;20482;-57
2023/08/01 14:44:57;;;;;;;2.70;2.17;;;;;;;;;;5011861;28;20509;-57
2023/08/01 14:47:26;;;;;;;3.33;2.57;;;;;;;;;;5010125;28;20954;-57
2023/08/01 14:49:56;;;;;;;3.90;3.00;;;;;;;;;;5010019;28;20561;-57